This is the latest recevied weather packets stored in our database for station/object K6HFP. If no packets are shown the sender has not sent any weather packets the latest 10 day(s).
| Time | Temp. | Humidity | Pressure | Rain* | Wind** | Luminosity | Snow |
|---|---|---|---|---|---|---|---|
| 1777762610 | 23.89° C | 42% | 1009.5 hPa | 0 mm | - | 665 W/m² | - |
| 1777762308 | 23.33° C | 43% | 1009.5 hPa | 0 mm | - | 725 W/m² | - |
| 1777762004 | 23.33° C | 43% | 1009.4 hPa | 0 mm | - | 666 W/m² | - |
| 1777761701 | 22.78° C | 41% | 1009.7 hPa | 0 mm | - | 592 W/m² | - |
| 1777761399 | 23.33° C | 42% | 1009.6 hPa | 0 mm | - | 590 W/m² | - |
| 1777761097 | 23.89° C | 39% | 1009.9 hPa | 0 mm | - | 662 W/m² | - |
| 1777760794 | 24.44° C | 41% | 1009.7 hPa | 0 mm | - | 848 W/m² | - |
| 1777760491 | 23.89° C | 41% | 1010.1 hPa | 0 mm | - | 849 W/m² | - |
| 1777760186 | 23.89° C | 40% | 1010.3 hPa | 0 mm | - | 882 W/m² | - |
| 1777759884 | 23.89° C | 42% | 1010.1 hPa | 0 mm | - | 899 W/m² | - |
| 1777759580 | 23.89° C | 41% | 1010 hPa | 0 mm | - | 892 W/m² | - |
| 1777759276 | 23.89° C | 40% | 1010.3 hPa | 0 mm | - | 895 W/m² | - |
| 1777758973 | 23.89° C | 40% | 1010.2 hPa | 0 mm | - | 773 W/m² | - |
| 1777758670 | 23.89° C | 38% | 1010.3 hPa | 0 mm | - | 920 W/m² | - |
| 1777758367 | 23.89° C | 35% | 1010.4 hPa | 0 mm | - | 893 W/m² | - |
| 1777758064 | 23.89° C | 35% | 1010.4 hPa | 0 mm | - | 907 W/m² | - |
| 1777757762 | 24.44° C | 37% | 1010.4 hPa | 0 mm | - | 861 W/m² | - |
| 1777757459 | 23.89° C | 39% | 1010.6 hPa | 0 mm | - | 911 W/m² | - |
| 1777757158 | 23.89° C | 41% | 1010.4 hPa | 0 mm | - | 849 W/m² | - |
| 1777756855 | 23.89° C | 39% | 1010.5 hPa | 0 mm | - | 939 W/m² | - |
| 1777756550 | 23.89° C | 40% | 1010.6 hPa | 0 mm | - | 859 W/m² | - |
| 1777756248 | 23.89° C | 36% | 1010.7 hPa | 0 mm | - | 839 W/m² | - |
| 1777755945 | 23.33° C | 38% | 1010.7 hPa | 0 mm | - | 957 W/m² | - |
| 1777755642 | 23.33° C | 42% | 1010.7 hPa | 0 mm | - | 935 W/m² | - |
| 1777755338 | 23.33° C | 39% | 1011 hPa | 0 mm | - | 973 W/m² | - |
* Rain latest hour (hover to see other rain measurements)
** Current wind speed in m/s (hover to see current wind gust speed)